METAR Data
IDs: Format: Raw Decoded Include TAF

Data at: 1052 UTC 18 Jan 2022

KFAR 180953Z 16010G18KT 9SM OVC110 M01/M04 A2949 RMK AO2 SLP997 T10111039
KFAR 180853Z 16009KT 10SM SCT110 M01/M04 A2951 RMK AO2 SLP004 T10111039 56039
KFAR 180753Z 15015KT 10SM FEW120 M01/M04 A2953 RMK AO2 PRESFR SLP013 T10111039
KFAR 180653Z 16011G21KT 10SM FEW100 M01/M04 A2959 RMK AO2 SLP031 T10111044
KFAR 180553Z 14010KT 10SM OVC095 M01/M04 A2962 RMK AO2 SLP044 T10111044 11011 21033 410111072 56033
KFAR 180453Z 13010KT 10SM OVC090 M02/M05 A2965 RMK AO2 SLP053 T10221050
KFAR 180353Z 10006KT 8SM BKN090 M03/M06 A2970 RMK AO2 SLP070 T10281056
KFAR 180253Z 12004KT 8SM CLR M03/M06 A2972 RMK AO2 SLP080 T10331056 58016
KFAR 180153Z 08005KT 10SM OVC085 M03/M06 A2976 RMK AO2 SLP090 T10331056
KFAR 180053Z 06005KT 10SM OVC090 M03/M06 A2978 RMK AO2 SLP097 T10331056
KFAR 172353Z 04005KT 10SM FEW080 OVC090 M03/M06 A2977 RMK AO2 SLP095 T10281056 11011 21028 56005
KFAR 172253Z 04005KT 10SM OVC075 M02/M06 A2978 RMK AO2 SLP096 T10221056
KFAR 172153Z 02005KT 10SM OVC080 M02/M06 A2977 RMK AO2 SLP095 T10221056
KFAR 172053Z 36004KT 10SM OVC075 M02/M06 A2979 RMK AO2 SLP101 T10171056 58004
KFAR 171953Z 34004KT 10SM OVC065 M01/M06 A2978 RMK AO2 SLP097 T10111056
KFAR 171856Z 34004KT 10SM OVC070 M02/M06 A2980 RMK AO2 T10171056
KFAR 171853Z 34034KT 10SM SQ OVC070 M02/M06 A2981 RMK AO2 SLP110 T10171056
KFAR 171756Z 32003KT 10SM OVC075 M01/M06 A2980 RMK AO2 T10111056
KFAR 171753Z 10SM BKN075 OVC090 M01/M05 A2980 RMK AO2 SLP105 I6000 T10111050 11011 21072 58005
KFAR 171653Z 8SM SCT080 M04/M06 A2981 RMK AO2 SLP108 T10391061
KFAR 171553Z 6SM BR OVC110 M05/M07 A2982 RMK AO2 SLP113 T10501072
KFAR 171453Z 21003KT 5SM BR BKN110 M06/M08 A2982 RMK AO2 SLP113 I1000 I3000 T10611078 53008
KFAR 171353Z 17003KT 7SM CLR M06/M08 A2979 RMK AO2 SLP104 T10611078
KFAR 171253Z 00000KT 10SM BKN110 M03/M06 A2981 RMK AO2 SLP109 T10331061
KFAR 171153Z 24009KT 10SM FEW120 M03/M05 A2979 RMK AO2 SLP102 70003 T10281050 11017 21061 56017 $
KFAR 171053Z AUTO 22011KT 10SM FEW030 M02/M04 A2980 RMK AO2 SLP103 T10221044 $
KFAR 171040Z AUTO 22012KT 10SM SCT023 BKN030 M02/M04 A2981 RMK AO2 T10171044 $
KFAR 170953Z AUTO 22008KT 10SM OVC022 M03/M05 A2982 RMK AO2 SLP113 T10281050 $
KFAR 170853Z AUTO 19008KT 10SM BKN025 BKN050 M06/M08 A2984 RMK AO2 SLP121 T10561078 56021 $
KFAR 170753Z AUTO 20012KT 10SM BKN028 M06/M08 A2986 RMK AO2 SLP125 T10561083 $
KFAR 170746Z AUTO 20010KT 10SM BKN028 M06/M08 A2986 RMK AO2 T10611083 $
KFAR 170653Z AUTO 18008KT 10SM OVC032 M06/M09 A2989 RMK AO2 SLP135 T10611089 $
KFAR 170553Z AUTO 17007KT 10SM OVC032 M06/M09 A2991 RMK AO2 SLP141 T10561094 11039 21067 400111106 56019 $
KFAR 170453Z 14003KT 10SM OVC030 M06/M09 A2993 RMK AO2 SLP148 T10561089 $
KFAR 170353Z 19004KT 10SM OVC031 M06/M09 A2994 RMK AO2 SLP153 T10611089 $
KFAR 170253Z 00000KT 10SM OVC031 M07/M09 A2996 RMK AO2 SLP164 T10671089 51004 $
KFAR 170219Z 00000KT 10SM OVC030 M06/M09 A2997 RMK AO2 T10611089 $
KFAR 170153Z 01007KT 10SM OVC029 M06/M09 A2997 RMK AO2 SLP164 T10561089 /
KFAR 170053Z 03011KT 10SM OVC029 M05/M09 A2995 RMK AO2 SLP160 T10501089 $
KFAR 170045Z 03012KT 10SM OVC029 M05/M08 A2995 RMK AO2 T10501083 $
KFAR 162353Z 35014KT 10SM OVC030 M04/M08 A2995 RMK AO2 SLP159 60002 T10391078 10000 21039 51020 $
KFAR 162253Z 34013KT 10SM OVC025 M03/M07 A2994 RMK AO2 SLP155 T10331072 $